Bloomfield Hills, Michigan
Current Conditions -  °F | °C
As of 7:54 AM on Friday 19 Dec 2014 (Local Time) from KVLL Reporting Station
Overcast Overcast  
Wind Chill: 23°   Ceiling: 1800
Heat Index: 28°   Visibility: 10mi
Dew Point: 20°   Wind: 5mph
Humidity: 73%   Direction: 360°N
Pressure: 30.27"   Gusts: NA
Location:  42.58°N, 83.25°W
Report Text: KVLL 191254Z AUTO 36004KT 10SM OVC018 M02/M06 A3027 RMK AO2 T10221064
Loading
Personal Weather Stations






























Interactive Weather Map New forecast layout! Learn more

10-Day Weather Forecast

Advertisements
Track Severe Weather on mobile